Aviation Digital Data Service (ADDS)

Output produced by METARs form (1520 UTC 20 March 2019)
found at http://www.aviationweather.gov/metar/data/
 
METAR text: OIII 201500Z 33006KT 9999 FEW035 10/M13 Q1014 A2996 NOSIG
Conditions at: OIII (TEHRAN/MEHRABAD , IR) observed 1500 UTC 20 March 2019
Temperature: 10.0°C (50°F)
Dewpoint: -13.0°C ( 9°F) [RH = 18%]
Pressure (altimeter): 29.94 inches Hg (1014.0 mb)
Winds: from the NNW (330 degrees) at 7 MPH (6 knots; 3.1 m/s)
Visibility: 6 or more miles (10+ km)
Ceiling: at least 12,000 feet AGL
Clouds: few clouds at 3500 feet AGL
Weather: no significant weather observed at this time

METAR text: OIII 201450Z 33006KT 9999 FEW035 10/M13 Q1014 A2996 NOSIG
Conditions at: OIII (TEHRAN/MEHRABAD , IR) observed 1450 UTC 20 March 2019
Temperature: 10.0°C (50°F)
Dewpoint: -13.0°C ( 9°F) [RH = 18%]
Pressure (altimeter): 29.94 inches Hg (1014.0 mb)
Winds: from the NNW (330 degrees) at 7 MPH (6 knots; 3.1 m/s)
Visibility: 6 or more miles (10+ km)
Ceiling: at least 12,000 feet AGL
Clouds: few clouds at 3500 feet AGL
Weather: no significant weather observed at this time

METAR text: OIII 201430Z 32010KT 9999 FEW035 11/M11 Q1014 A2996
Conditions at: OIII (TEHRAN/MEHRABAD , IR) observed 1430 UTC 20 March 2019
Temperature: 11.0°C (52°F)
Dewpoint: -11.0°C (12°F) [RH = 20%]
Pressure (altimeter): 29.94 inches Hg (1014.0 mb)
Winds: from the NW (320 degrees) at 12 MPH (10 knots; 5.1 m/s)
Visibility: 6 or more miles (10+ km)
Ceiling: at least 12,000 feet AGL
Clouds: few clouds at 3500 feet AGL
Weather: no significant weather observed at this time

METAR text: OIII 201423Z 32010KT 9999 FEW035 11/M11 Q1014 A2996
Conditions at: OIII (TEHRAN/MEHRABAD , IR) observed 1423 UTC 20 March 2019
Temperature: 11.0°C (52°F)
Dewpoint: -11.0°C (12°F) [RH = 20%]
Pressure (altimeter): 29.94 inches Hg (1014.0 mb)
Winds: from the NW (320 degrees) at 12 MPH (10 knots; 5.1 m/s)
Visibility: 6 or more miles (10+ km)
Ceiling: at least 12,000 feet AGL
Clouds: few clouds at 3500 feet AGL
Weather: no significant weather observed at this time

METAR text: OIII 201400Z 29008KT 9999 FEW035 11/M09 Q1014 A2996 NOSIG
Conditions at: OIII (TEHRAN/MEHRABAD , IR) observed 1400 UTC 20 March 2019
Temperature: 11.0°C (52°F)
Dewpoint: -9.0°C (16°F) [RH = 24%]
Pressure (altimeter): 29.94 inches Hg (1014.0 mb)
Winds: from the WNW (290 degrees) at 9 MPH (8 knots; 4.1 m/s)
Visibility: 6 or more miles (10+ km)
Ceiling: at least 12,000 feet AGL
Clouds: few clouds at 3500 feet AGL
Weather: no significant weather observed at this time

METAR text: OIII 201355Z 29008KT 9999 FEW035 11/M09 Q1014 A2996 NOSIG
Conditions at: OIII (TEHRAN/MEHRABAD , IR) observed 1355 UTC 20 March 2019
Temperature: 11.0°C (52°F)
Dewpoint: -9.0°C (16°F) [RH = 24%]
Pressure (altimeter): 29.94 inches Hg (1014.0 mb)
Winds: from the WNW (290 degrees) at 9 MPH (8 knots; 4.1 m/s)
Visibility: 6 or more miles (10+ km)
Ceiling: at least 12,000 feet AGL
Clouds: few clouds at 3500 feet AGL
Weather: no significant weather observed at this time

METAR text: OIII 201330Z 30006KT 9999 SCT030 12/M08 Q1014 A2995
Conditions at: OIII (TEHRAN/MEHRABAD , IR) observed 1330 UTC 20 March 2019
Temperature: 12.0°C (54°F)
Dewpoint: -8.0°C (18°F) [RH = 24%]
Pressure (altimeter): 29.94 inches Hg (1014.0 mb)
Winds: from the WNW (300 degrees) at 7 MPH (6 knots; 3.1 m/s)
Visibility: 6 or more miles (10+ km)
Ceiling: at least 12,000 feet AGL
Clouds: scattered clouds at 3000 feet AGL
Weather: no significant weather observed at this time

METAR text: OIII 201320Z 30006KT 9999 SCT030 12/M08 Q1014 A2995
Conditions at: OIII (TEHRAN/MEHRABAD , IR) observed 1320 UTC 20 March 2019
Temperature: 12.0°C (54°F)
Dewpoint: -8.0°C (18°F) [RH = 24%]
Pressure (altimeter): 29.94 inches Hg (1014.0 mb)
Winds: from the WNW (300 degrees) at 7 MPH (6 knots; 3.1 m/s)
Visibility: 6 or more miles (10+ km)
Ceiling: at least 12,000 feet AGL
Clouds: scattered clouds at 3000 feet AGL
Weather: no significant weather observed at this time

METAR text: OIII 201300Z 30006KT 9999 SCT030 12/M06 Q1014 A2995 NOSIG
Conditions at: OIII (TEHRAN/MEHRABAD , IR) observed 1300 UTC 20 March 2019
Temperature: 12.0°C (54°F)
Dewpoint: -6.0°C (21°F) [RH = 28%]
Pressure (altimeter): 29.94 inches Hg (1014.0 mb)
Winds: from the WNW (300 degrees) at 7 MPH (6 knots; 3.1 m/s)
Visibility: 6 or more miles (10+ km)
Ceiling: at least 12,000 feet AGL
Clouds: scattered clouds at 3000 feet AGL
Weather: no significant weather observed at this time

METAR text: OIII 201258Z 30006KT 9999 SCT030 12/M06 Q1014 A2995 NOSIG
Conditions at: OIII (TEHRAN/MEHRABAD , IR) observed 1258 UTC 20 March 2019
Temperature: 12.0°C (54°F)
Dewpoint: -6.0°C (21°F) [RH = 28%]
Pressure (altimeter): 29.94 inches Hg (1014.0 mb)
Winds: from the WNW (300 degrees) at 7 MPH (6 knots; 3.1 m/s)
Visibility: 6 or more miles (10+ km)
Ceiling: at least 12,000 feet AGL
Clouds: scattered clouds at 3000 feet AGL
Weather: no significant weather observed at this time

METAR text: OIII 201230Z 29008KT 9999 FEW030TCU 12/M05 Q1014 A2996
Conditions at: OIII (TEHRAN/MEHRABAD , IR) observed 1230 UTC 20 March 2019
Temperature: 12.0°C (54°F)
Dewpoint: -5.0°C (23°F) [RH = 30%]
Pressure (altimeter): 29.94 inches Hg (1014.0 mb)
Winds: from the WNW (290 degrees) at 9 MPH (8 knots; 4.1 m/s)
Visibility: 6 or more miles (10+ km)
Ceiling: at least 12,000 feet AGL
Clouds: few clouds at 3000 feet AGL
Weather: no significant weather observed at this time

METAR text: OIII 201229Z 29008KT 9999 FEW030TCU 12/M05 Q1014 A2996
Conditions at: OIII (TEHRAN/MEHRABAD , IR) observed 1229 UTC 20 March 2019
Temperature: 12.0°C (54°F)
Dewpoint: -5.0°C (23°F) [RH = 30%]
Pressure (altimeter): 29.94 inches Hg (1014.0 mb)
Winds: from the WNW (290 degrees) at 9 MPH (8 knots; 4.1 m/s)
Visibility: 6 or more miles (10+ km)
Ceiling: at least 12,000 feet AGL
Clouds: few clouds at 3000 feet AGL
Weather: no significant weather observed at this time

METAR text: OIII 201200Z 29008KT 9999 FEW030TCU 12/M05 Q1014 A2997 NOSIG
Conditions at: OIII (TEHRAN/MEHRABAD , IR) observed 1200 UTC 20 March 2019
Temperature: 12.0°C (54°F)
Dewpoint: -5.0°C (23°F) [RH = 30%]
Pressure (altimeter): 29.94 inches Hg (1014.0 mb)
Winds: from the WNW (290 degrees) at 9 MPH (8 knots; 4.1 m/s)
Visibility: 6 or more miles (10+ km)
Ceiling: at least 12,000 feet AGL
Clouds: few clouds at 3000 feet AGL
Weather: no significant weather observed at this time

METAR text: OIII 201155Z 29008KT 9999 FEW030TCU 12/M05 Q1014 A2997 NOSIG
Conditions at: OIII (TEHRAN/MEHRABAD , IR) observed 1155 UTC 20 March 2019
Temperature: 12.0°C (54°F)
Dewpoint: -5.0°C (23°F) [RH = 30%]
Pressure (altimeter): 29.94 inches Hg (1014.0 mb)
Winds: from the WNW (290 degrees) at 9 MPH (8 knots; 4.1 m/s)
Visibility: 6 or more miles (10+ km)
Ceiling: at least 12,000 feet AGL
Clouds: few clouds at 3000 feet AGL
Weather: no significant weather observed at this time

METAR text: OIII 201130Z 29010KT 9999 FEW030TCU SCT180 12/M04 Q1014 A2997 NOSIG
Conditions at: OIII (TEHRAN/MEHRABAD , IR) observed 1130 UTC 20 March 2019
Temperature: 12.0°C (54°F)
Dewpoint: -4.0°C (25°F) [RH = 32%]
Pressure (altimeter): 29.94 inches Hg (1014.0 mb)
Winds: from the WNW (290 degrees) at 12 MPH (10 knots; 5.1 m/s)
Visibility: 6 or more miles (10+ km)
Ceiling: at least 12,000 feet AGL
Clouds: few clouds at 3000 feet AGL
scattered clouds at 18000 feet AGL
Weather: no significant weather observed at this time

METAR text: OIII 201123Z 29010KT 9999 FEW030TCU SCT180 12/M04 Q1014 A2997 NOSIG
Conditions at: OIII (TEHRAN/MEHRABAD , IR) observed 1123 UTC 20 March 2019
Temperature: 12.0°C (54°F)
Dewpoint: -4.0°C (25°F) [RH = 32%]
Pressure (altimeter): 29.94 inches Hg (1014.0 mb)
Winds: from the WNW (290 degrees) at 12 MPH (10 knots; 5.1 m/s)
Visibility: 6 or more miles (10+ km)
Ceiling: at least 12,000 feet AGL
Clouds: few clouds at 3000 feet AGL
scattered clouds at 18000 feet AGL
Weather: no significant weather observed at this time

METAR text: OIII 201100Z 30010KT 9999 FEW030 FEW035TCU SCT180 12/M03 Q1015 A2997
Conditions at: OIII (TEHRAN/MEHRABAD , IR) observed 1100 UTC 20 March 2019
Temperature: 12.0°C (54°F)
Dewpoint: -3.0°C (27°F) [RH = 35%]
Pressure (altimeter): 29.97 inches Hg (1015.0 mb)
Winds: from the WNW (300 degrees) at 12 MPH (10 knots; 5.1 m/s)
Visibility: 6 or more miles (10+ km)
Ceiling: at least 12,000 feet AGL
Clouds: few clouds at 3000 feet AGL
few clouds at 3500 feet AGL
scattered clouds at 18000 feet AGL
Weather: no significant weather observed at this time

METAR text: OIII 201030Z 28006KT 9999 FEW030 FEW035TCU 12/M04 Q1014 A2997
Conditions at: OIII (TEHRAN/MEHRABAD , IR) observed 1030 UTC 20 March 2019
Temperature: 12.0°C (54°F)
Dewpoint: -4.0°C (25°F) [RH = 32%]
Pressure (altimeter): 29.94 inches Hg (1014.0 mb)
Winds: from the W (280 degrees) at 7 MPH (6 knots; 3.1 m/s)
Visibility: 6 or more miles (10+ km)
Ceiling: at least 12,000 feet AGL
Clouds: few clouds at 3000 feet AGL
few clouds at 3500 feet AGL
Weather: no significant weather observed at this time

METAR text: OIII 201000Z 25010KT 9999 FEW030TCU SCT035 11/M01 Q1015 A2998
Conditions at: OIII (TEHRAN/MEHRABAD , IR) observed 1000 UTC 20 March 2019
Temperature: 11.0°C (52°F)
Dewpoint: -1.0°C (30°F) [RH = 43%]
Pressure (altimeter): 29.97 inches Hg (1015.0 mb)
Winds: from the WSW (250 degrees) at 12 MPH (10 knots; 5.1 m/s)
Visibility: 6 or more miles (10+ km)
Ceiling: at least 12,000 feet AGL
Clouds: few clouds at 3000 feet AGL
scattered clouds at 3500 feet AGL
Weather: no significant weather observed at this time

METAR text: OIII 200930Z 25012KT 9999 FEW030TCU SCT035 11/M01 Q1015 A2999
Conditions at: OIII (TEHRAN/MEHRABAD , IR) observed 0930 UTC 20 March 2019
Temperature: 11.0°C (52°F)
Dewpoint: -1.0°C (30°F) [RH = 43%]
Pressure (altimeter): 29.97 inches Hg (1015.0 mb)
Winds: from the WSW (250 degrees) at 14 MPH (12 knots; 6.2 m/s)
Visibility: 6 or more miles (10+ km)
Ceiling: at least 12,000 feet AGL
Clouds: few clouds at 3000 feet AGL
scattered clouds at 3500 feet AGL
Weather: no significant weather observed at this time

METAR text: OIII 200900Z 25010KT 9999 FEW030TCU SCT035 11/M01 Q1016 A3000
Conditions at: OIII (TEHRAN/MEHRABAD , IR) observed 0900 UTC 20 March 2019
Temperature: 11.0°C (52°F)
Dewpoint: -1.0°C (30°F) [RH = 43%]
Pressure (altimeter): 30.00 inches Hg (1016.0 mb)
Winds: from the WSW (250 degrees) at 12 MPH (10 knots; 5.1 m/s)
Visibility: 6 or more miles (10+ km)
Ceiling: at least 12,000 feet AGL
Clouds: few clouds at 3000 feet AGL
scattered clouds at 3500 feet AGL
Weather: no significant weather observed at this time

METAR text: OIII 200830Z 24008KT 9999 FEW030TCU SCT035 10/00 Q1016 A3001
Conditions at: OIII (TEHRAN/MEHRABAD , IR) observed 0830 UTC 20 March 2019
Temperature: 10.0°C (50°F)
Dewpoint: 0.0°C (32°F) [RH = 50%]
Pressure (altimeter): 30.00 inches Hg (1016.0 mb)
Winds: from the WSW (240 degrees) at 9 MPH (8 knots; 4.1 m/s)
Visibility: 6 or more miles (10+ km)
Ceiling: at least 12,000 feet AGL
Clouds: few clouds at 3000 feet AGL
scattered clouds at 3500 feet AGL
Weather: no significant weather observed at this time

METAR text: OIII 200820Z 24008KT 9999 FEW030TCU SCT035 10/00 Q1016 A3001
Conditions at: OIII (TEHRAN/MEHRABAD , IR) observed 0820 UTC 20 March 2019
Temperature: 10.0°C (50°F)
Dewpoint: 0.0°C (32°F) [RH = 50%]
Pressure (altimeter): 30.00 inches Hg (1016.0 mb)
Winds: from the WSW (240 degrees) at 9 MPH (8 knots; 4.1 m/s)
Visibility: 6 or more miles (10+ km)
Ceiling: at least 12,000 feet AGL
Clouds: few clouds at 3000 feet AGL
scattered clouds at 3500 feet AGL
Weather: no significant weather observed at this time

METAR text: OIII 200800Z 21006KT 9999 FEW030TCU BKN035 10/M00 Q1016 A3002
Conditions at: OIII (TEHRAN/MEHRABAD , IR) observed 0800 UTC 20 March 2019
Temperature: 10.0°C (50°F)
Dewpoint: 0.0°C (32°F) [RH = 50%]
Pressure (altimeter): 30.00 inches Hg (1016.0 mb)
Winds: from the SSW (210 degrees) at 7 MPH (6 knots; 3.1 m/s)
Visibility: 6 or more miles (10+ km)
Ceiling: 3500 feet AGL
Clouds: few clouds at 3000 feet AGL
broken clouds at 3500 feet AGL
Weather: no significant weather observed at this time

METAR text: OIII 200730Z 21008KT 9999 FEW030TCU SCT035 10/M01 Q1016 A3002
Conditions at: OIII (TEHRAN/MEHRABAD , IR) observed 0730 UTC 20 March 2019
Temperature: 10.0°C (50°F)
Dewpoint: -1.0°C (30°F) [RH = 46%]
Pressure (altimeter): 30.00 inches Hg (1016.0 mb)
Winds: from the SSW (210 degrees) at 9 MPH (8 knots; 4.1 m/s)
Visibility: 6 or more miles (10+ km)
Ceiling: at least 12,000 feet AGL
Clouds: few clouds at 3000 feet AGL
scattered clouds at 3500 feet AGL
Weather: no significant weather observed at this time

METAR text: OIII 200700Z 18006KT 9999 FEW030 SCT100 09/M01 Q1017 A3003 NOSIG
Conditions at: OIII (TEHRAN/MEHRABAD , IR) observed 0700 UTC 20 March 2019
Temperature: 9.0°C (48°F)
Dewpoint: -1.0°C (30°F) [RH = 49%]
Pressure (altimeter): 30.03 inches Hg (1017.0 mb)
Winds: from the S (180 degrees) at 7 MPH (6 knots; 3.1 m/s)
Visibility: 6 or more miles (10+ km)
Ceiling: at least 12,000 feet AGL
Clouds: few clouds at 3000 feet AGL
scattered clouds at 10000 feet AGL
Weather: no significant weather observed at this time

METAR text: OIII 200630Z 15004KT 9999 FEW035 SCT100 09/M02 Q1017 A3003
Conditions at: OIII (TEHRAN/MEHRABAD , IR) observed 0630 UTC 20 March 2019
Temperature: 9.0°C (48°F)
Dewpoint: -2.0°C (28°F) [RH = 46%]
Pressure (altimeter): 30.03 inches Hg (1017.0 mb)
Winds: from the SSE (150 degrees) at 5 MPH (4 knots; 2.1 m/s)
Visibility: 6 or more miles (10+ km)
Ceiling: at least 12,000 feet AGL
Clouds: few clouds at 3500 feet AGL
scattered clouds at 10000 feet AGL
Weather: no significant weather observed at this time

METAR text: OIII 200600Z 25006KT 9999 FEW035 SCT100 09/M00 Q1017 A3003 NOSIG
Conditions at: OIII (TEHRAN/MEHRABAD , IR) observed 0600 UTC 20 March 2019
Temperature: 9.0°C (48°F)
Dewpoint: 0.0°C (32°F) [RH = 53%]
Pressure (altimeter): 30.03 inches Hg (1017.0 mb)
Winds: from the WSW (250 degrees) at 7 MPH (6 knots; 3.1 m/s)
Visibility: 6 or more miles (10+ km)
Ceiling: at least 12,000 feet AGL
Clouds: few clouds at 3500 feet AGL
scattered clouds at 10000 feet AGL
Weather: no significant weather observed at this time

METAR text: OIII 200530Z 24004KT 9999 FEW035 SCT100 08/01 Q1017 A3004
Conditions at: OIII (TEHRAN/MEHRABAD , IR) observed 0530 UTC 20 March 2019
Temperature: 8.0°C (46°F)
Dewpoint: 1.0°C (34°F) [RH = 61%]
Pressure (altimeter): 30.03 inches Hg (1017.0 mb)
Winds: from the WSW (240 degrees) at 5 MPH (4 knots; 2.1 m/s)
Visibility: 6 or more miles (10+ km)
Ceiling: at least 12,000 feet AGL
Clouds: few clouds at 3500 feet AGL
scattered clouds at 10000 feet AGL
Weather: no significant weather observed at this time

METAR text: OIII 200500Z 21004KT 9999 FEW035 SCT100 08/00 Q1017 A3003 NOSIG
Conditions at: OIII (TEHRAN/MEHRABAD , IR) observed 0500 UTC 20 March 2019
Temperature: 8.0°C (46°F)
Dewpoint: 0.0°C (32°F) [RH = 57%]
Pressure (altimeter): 30.03 inches Hg (1017.0 mb)
Winds: from the SSW (210 degrees) at 5 MPH (4 knots; 2.1 m/s)
Visibility: 6 or more miles (10+ km)
Ceiling: at least 12,000 feet AGL
Clouds: few clouds at 3500 feet AGL
scattered clouds at 10000 feet AGL
Weather: no significant weather observed at this time

METAR text: OIII 200430Z 26004KT 9999 FEW035 SCT100 07/01 Q1016 A3002
Conditions at: OIII (TEHRAN/MEHRABAD , IR) observed 0430 UTC 20 March 2019
Temperature: 7.0°C (45°F)
Dewpoint: 1.0°C (34°F) [RH = 66%]
Pressure (altimeter): 30.00 inches Hg (1016.0 mb)
Winds: from the W (260 degrees) at 5 MPH (4 knots; 2.1 m/s)
Visibility: 6 or more miles (10+ km)
Ceiling: at least 12,000 feet AGL
Clouds: few clouds at 3500 feet AGL
scattered clouds at 10000 feet AGL
Weather: no significant weather observed at this time

METAR text: OIII 200400Z 15006KT 9999 FEW030CB SCT035 SCT100 08/01 Q1016 A3001
Conditions at: OIII (TEHRAN/MEHRABAD , IR) observed 0400 UTC 20 March 2019
Temperature: 8.0°C (46°F)
Dewpoint: 1.0°C (34°F) [RH = 61%]
Pressure (altimeter): 30.00 inches Hg (1016.0 mb)
Winds: from the SSE (150 degrees) at 7 MPH (6 knots; 3.1 m/s)
Visibility: 6 or more miles (10+ km)
Ceiling: at least 12,000 feet AGL
Clouds: few clouds at 3000 feet AGL
scattered clouds at 3500 feet AGL
scattered clouds at 10000 feet AGL
Weather: no significant weather observed at this time

METAR text: OIII 200343Z 19004KT 9999 -SHRA FEW030CB SCT035 BKN100 08/02 Q1016 A3001
Conditions at: OIII (TEHRAN/MEHRABAD , IR) observed 0343 UTC 20 March 2019
Temperature: 8.0°C (46°F)
Dewpoint: 2.0°C (36°F) [RH = 66%]
Pressure (altimeter): 30.00 inches Hg (1016.0 mb)
Winds: from the S (190 degrees) at 5 MPH (4 knots; 2.1 m/s)
Visibility: 6 or more miles (10+ km)
Ceiling: 10000 feet AGL
Clouds: few clouds at 3000 feet AGL
scattered clouds at 3500 feet AGL
broken clouds at 10000 feet AGL
Weather: -SHRA  (light rain showers)

METAR text: OIII 200330Z 19008KT 9999 SCT035 BKN100 09/01 Q1016 A3001
Conditions at: OIII (TEHRAN/MEHRABAD , IR) observed 0330 UTC 20 March 2019
Temperature: 9.0°C (48°F)
Dewpoint: 1.0°C (34°F) [RH = 57%]
Pressure (altimeter): 30.00 inches Hg (1016.0 mb)
Winds: from the S (190 degrees) at 9 MPH (8 knots; 4.1 m/s)
Visibility: 6 or more miles (10+ km)
Ceiling: 10000 feet AGL
Clouds: scattered clouds at 3500 feet AGL
broken clouds at 10000 feet AGL
Weather: no significant weather observed at this time

METAR text: OIII 200300Z 13004KT 9999 SCT035 BKN100 09/M02 Q1015 A3000
Conditions at: OIII (TEHRAN/MEHRABAD , IR) observed 0300 UTC 20 March 2019
Temperature: 9.0°C (48°F)
Dewpoint: -2.0°C (28°F) [RH = 46%]
Pressure (altimeter): 29.97 inches Hg (1015.0 mb)
Winds: from the SE (130 degrees) at 5 MPH (4 knots; 2.1 m/s)
Visibility: 6 or more miles (10+ km)
Ceiling: 10000 feet AGL
Clouds: scattered clouds at 3500 feet AGL
broken clouds at 10000 feet AGL
Weather: no significant weather observed at this time

METAR text: OIII 200230Z 00000KT 9999 FEW035 BKN100 08/01 Q1015 A3000
Conditions at: OIII (TEHRAN/MEHRABAD , IR) observed 0230 UTC 20 March 2019
Temperature: 8.0°C (46°F)
Dewpoint: 1.0°C (34°F) [RH = 61%]
Pressure (altimeter): 29.97 inches Hg (1015.0 mb)
Winds: calm
Visibility: 6 or more miles (10+ km)
Ceiling: 10000 feet AGL
Clouds: few clouds at 3500 feet AGL
broken clouds at 10000 feet AGL
Weather: no significant weather observed at this time

METAR text: OIII 200200Z 00000KT 9999 FEW035 BKN100 08/01 Q1015 A3000 TEMPO 5000 BR
Conditions at: OIII (TEHRAN/MEHRABAD , IR) observed 0200 UTC 20 March 2019
Temperature: 8.0°C (46°F)
Dewpoint: 1.0°C (34°F) [RH = 61%]
Pressure (altimeter): 29.97 inches Hg (1015.0 mb)
Winds: calm
Visibility: 6 or more miles (10+ km)
Ceiling: 10000 feet AGL
Clouds: few clouds at 3500 feet AGL
broken clouds at 10000 feet AGL
Weather: no significant weather observed at this time

METAR text: OIII 200130Z 00000KT 9999 FEW035 BKN100 08/01 Q1015 A2999
Conditions at: OIII (TEHRAN/MEHRABAD , IR) observed 0130 UTC 20 March 2019
Temperature: 8.0°C (46°F)
Dewpoint: 1.0°C (34°F) [RH = 61%]
Pressure (altimeter): 29.97 inches Hg (1015.0 mb)
Winds: calm
Visibility: 6 or more miles (10+ km)
Ceiling: 10000 feet AGL
Clouds: few clouds at 3500 feet AGL
broken clouds at 10000 feet AGL
Weather: no significant weather observed at this time

METAR text: OIII 200100Z 24008KT 9999 FEW035 BKN100 08/00 Q1015 A2998 NOSIG
Conditions at: OIII (TEHRAN/MEHRABAD , IR) observed 0100 UTC 20 March 2019
Temperature: 8.0°C (46°F)
Dewpoint: 0.0°C (32°F) [RH = 57%]
Pressure (altimeter): 29.97 inches Hg (1015.0 mb)
Winds: from the WSW (240 degrees) at 9 MPH (8 knots; 4.1 m/s)
Visibility: 6 or more miles (10+ km)
Ceiling: 10000 feet AGL
Clouds: few clouds at 3500 feet AGL
broken clouds at 10000 feet AGL
Weather: no significant weather observed at this time

METAR text: OIII 200030Z 00000KT 9999 FEW035 BKN100 09/M01 Q1015 A2997
Conditions at: OIII (TEHRAN/MEHRABAD , IR) observed 0030 UTC 20 March 2019
Temperature: 9.0°C (48°F)
Dewpoint: -1.0°C (30°F) [RH = 49%]
Pressure (altimeter): 29.97 inches Hg (1015.0 mb)
Winds: calm
Visibility: 6 or more miles (10+ km)
Ceiling: 10000 feet AGL
Clouds: few clouds at 3500 feet AGL
broken clouds at 10000 feet AGL
Weather: no significant weather observed at this time

METAR text: OIII 200000Z 10004KT 9999 FEW035 BKN100 09/M01 Q1014 A2997 NOSIG
Conditions at: OIII (TEHRAN/MEHRABAD , IR) observed 0000 UTC 20 March 2019
Temperature: 9.0°C (48°F)
Dewpoint: -1.0°C (30°F) [RH = 49%]
Pressure (altimeter): 29.94 inches Hg (1014.0 mb)
Winds: from the E (100 degrees) at 5 MPH (4 knots; 2.1 m/s)
Visibility: 6 or more miles (10+ km)
Ceiling: 10000 feet AGL
Clouds: few clouds at 3500 feet AGL
broken clouds at 10000 feet AGL
Weather: no significant weather observed at this time

METAR text: OIII 192330Z 08004KT 9999 SCT035 BKN100 09/M01 Q1014 A2997
Conditions at: OIII (TEHRAN/MEHRABAD , IR) observed 2330 UTC 19 March 2019
Temperature: 9.0°C (48°F)
Dewpoint: -1.0°C (30°F) [RH = 49%]
Pressure (altimeter): 29.94 inches Hg (1014.0 mb)
Winds: from the E (80 degrees) at 5 MPH (4 knots; 2.1 m/s)
Visibility: 6 or more miles (10+ km)
Ceiling: 10000 feet AGL
Clouds: scattered clouds at 3500 feet AGL
broken clouds at 10000 feet AGL
Weather: no significant weather observed at this time

METAR text: OIII 192300Z 08004KT 9999 -RA SCT030 OVC090 09/M00 Q1014 A2997 TEMPO FEW030CB SCT035 OVC090
Conditions at: OIII (TEHRAN/MEHRABAD , IR) observed 2300 UTC 19 March 2019
Temperature: 9.0°C (48°F)
Dewpoint: 0.0°C (32°F) [RH = 53%]
Pressure (altimeter): 29.94 inches Hg (1014.0 mb)
Winds: from the E (80 degrees) at 5 MPH (4 knots; 2.1 m/s)
Visibility: 6 or more miles (10+ km)
Ceiling: 9000 feet AGL
Clouds: scattered clouds at 3000 feet AGL
overcast cloud deck at 9000 feet AGL
Weather: -RA  (light rain)

METAR text: OIII 192230Z 00000KT 9999 FEW035 BKN100 09/M01 Q1015 A2998
Conditions at: OIII (TEHRAN/MEHRABAD , IR) observed 2230 UTC 19 March 2019
Temperature: 9.0°C (48°F)
Dewpoint: -1.0°C (30°F) [RH = 49%]
Pressure (altimeter): 29.97 inches Hg (1015.0 mb)
Winds: calm
Visibility: 6 or more miles (10+ km)
Ceiling: 10000 feet AGL
Clouds: few clouds at 3500 feet AGL
broken clouds at 10000 feet AGL
Weather: no significant weather observed at this time

METAR text: OIII 192200Z 00000KT 9999 FEW035 BKN100 09/M01 Q1015 A2998 NOSIG
Conditions at: OIII (TEHRAN/MEHRABAD , IR) observed 2200 UTC 19 March 2019
Temperature: 9.0°C (48°F)
Dewpoint: -1.0°C (30°F) [RH = 49%]
Pressure (altimeter): 29.97 inches Hg (1015.0 mb)
Winds: calm
Visibility: 6 or more miles (10+ km)
Ceiling: 10000 feet AGL
Clouds: few clouds at 3500 feet AGL
broken clouds at 10000 feet AGL
Weather: no significant weather observed at this time

METAR text: OIII 192130Z 25004KT 9999 FEW035 BKN100 08/M01 Q1015 A2999
Conditions at: OIII (TEHRAN/MEHRABAD , IR) observed 2130 UTC 19 March 2019
Temperature: 8.0°C (46°F)
Dewpoint: -1.0°C (30°F) [RH = 53%]
Pressure (altimeter): 29.97 inches Hg (1015.0 mb)
Winds: from the WSW (250 degrees) at 5 MPH (4 knots; 2.1 m/s)
Visibility: 6 or more miles (10+ km)
Ceiling: 10000 feet AGL
Clouds: few clouds at 3500 feet AGL
broken clouds at 10000 feet AGL
Weather: no significant weather observed at this time

METAR text: OIII 192100Z 23006KT 9999 FEW035 BKN100 09/M01 Q1015 A2997 TEMPO FEW030CB FEW035 BKN100
Conditions at: OIII (TEHRAN/MEHRABAD , IR) observed 2100 UTC 19 March 2019
Temperature: 9.0°C (48°F)
Dewpoint: -1.0°C (30°F) [RH = 49%]
Pressure (altimeter): 29.97 inches Hg (1015.0 mb)
Winds: from the SW (230 degrees) at 7 MPH (6 knots; 3.1 m/s)
Visibility: 6 or more miles (10+ km)
Ceiling: 10000 feet AGL
Clouds: few clouds at 3500 feet AGL
broken clouds at 10000 feet AGL
Weather: no significant weather observed at this time

METAR text: OIII 192030Z 00000KT 9999 FEW035 BKN100 09/M00 Q1014 A2997
Conditions at: OIII (TEHRAN/MEHRABAD , IR) observed 2030 UTC 19 March 2019
Temperature: 9.0°C (48°F)
Dewpoint: 0.0°C (32°F) [RH = 53%]
Pressure (altimeter): 29.94 inches Hg (1014.0 mb)
Winds: calm
Visibility: 6 or more miles (10+ km)
Ceiling: 10000 feet AGL
Clouds: few clouds at 3500 feet AGL
broken clouds at 10000 feet AGL
Weather: no significant weather observed at this time

METAR text: OIII 192000Z 31004KT 9999 FEW035 BKN100 08/00 Q1015 A2998 TEMPO FEW030CB FEW035 BKN100
Conditions at: OIII (TEHRAN/MEHRABAD , IR) observed 2000 UTC 19 March 2019
Temperature: 8.0°C (46°F)
Dewpoint: 0.0°C (32°F) [RH = 57%]
Pressure (altimeter): 29.97 inches Hg (1015.0 mb)
Winds: from the NW (310 degrees) at 5 MPH (4 knots; 2.1 m/s)
Visibility: 6 or more miles (10+ km)
Ceiling: 10000 feet AGL
Clouds: few clouds at 3500 feet AGL
broken clouds at 10000 feet AGL
Weather: no significant weather observed at this time

METAR text: OIII 191930Z 29006KT 9999 FEW035 BKN100 08/00 Q1015 A2998
Conditions at: OIII (TEHRAN/MEHRABAD , IR) observed 1930 UTC 19 March 2019
Temperature: 8.0°C (46°F)
Dewpoint: 0.0°C (32°F) [RH = 57%]
Pressure (altimeter): 29.97 inches Hg (1015.0 mb)
Winds: from the WNW (290 degrees) at 7 MPH (6 knots; 3.1 m/s)
Visibility: 6 or more miles (10+ km)
Ceiling: 10000 feet AGL
Clouds: few clouds at 3500 feet AGL
broken clouds at 10000 feet AGL
Weather: no significant weather observed at this time

METAR text: OIII 191900Z 28008KT 9999 FEW035 SCT100 08/M00 Q1015 A2999 NOSIG
Conditions at: OIII (TEHRAN/MEHRABAD , IR) observed 1900 UTC 19 March 2019
Temperature: 8.0°C (46°F)
Dewpoint: 0.0°C (32°F) [RH = 57%]
Pressure (altimeter): 29.97 inches Hg (1015.0 mb)
Winds: from the W (280 degrees) at 9 MPH (8 knots; 4.1 m/s)
Visibility: 6 or more miles (10+ km)
Ceiling: at least 12,000 feet AGL
Clouds: few clouds at 3500 feet AGL
scattered clouds at 10000 feet AGL
Weather: no significant weather observed at this time

METAR text: OIII 191830Z 27008KT 9999 FEW035 SCT100 10/M00 Q1015 A2998
Conditions at: OIII (TEHRAN/MEHRABAD , IR) observed 1830 UTC 19 March 2019
Temperature: 10.0°C (50°F)
Dewpoint: 0.0°C (32°F) [RH = 50%]
Pressure (altimeter): 29.97 inches Hg (1015.0 mb)
Winds: from the W (270 degrees) at 9 MPH (8 knots; 4.1 m/s)
Visibility: 6 or more miles (10+ km)
Ceiling: at least 12,000 feet AGL
Clouds: few clouds at 3500 feet AGL
scattered clouds at 10000 feet AGL
Weather: no significant weather observed at this time

METAR text: OIII 191800Z 00000KT 9999 FEW035 11/M04 Q1015 A2998
Conditions at: OIII (TEHRAN/MEHRABAD , IR) observed 1800 UTC 19 March 2019
Temperature: 11.0°C (52°F)
Dewpoint: -4.0°C (25°F) [RH = 35%]
Pressure (altimeter): 29.97 inches Hg (1015.0 mb)
Winds: calm
Visibility: 6 or more miles (10+ km)
Ceiling: at least 12,000 feet AGL
Clouds: few clouds at 3500 feet AGL
Weather: no significant weather observed at this time

METAR text: OIII 191730Z 00000KT 9999 FEW035 BKN090 11/M05 Q1015 A2998
Conditions at: OIII (TEHRAN/MEHRABAD , IR) observed 1730 UTC 19 March 2019
Temperature: 11.0°C (52°F)
Dewpoint: -5.0°C (23°F) [RH = 32%]
Pressure (altimeter): 29.97 inches Hg (1015.0 mb)
Winds: calm
Visibility: 6 or more miles (10+ km)
Ceiling: 9000 feet AGL
Clouds: few clouds at 3500 feet AGL
broken clouds at 9000 feet AGL
Weather: no significant weather observed at this time

METAR text: OIII 191700Z 30004KT 9999 FEW035 BKN100 12/M05 Q1015 A2998 NOSIG
Conditions at: OIII (TEHRAN/MEHRABAD , IR) observed 1700 UTC 19 March 2019
Temperature: 12.0°C (54°F)
Dewpoint: -5.0°C (23°F) [RH = 30%]
Pressure (altimeter): 29.97 inches Hg (1015.0 mb)
Winds: from the WNW (300 degrees) at 5 MPH (4 knots; 2.1 m/s)
Visibility: 6 or more miles (10+ km)
Ceiling: 10000 feet AGL
Clouds: few clouds at 3500 feet AGL
broken clouds at 10000 feet AGL
Weather: no significant weather observed at this time

METAR text: OIII 191630Z 31004KT 9999 FEW035 BKN100 12/M05 Q1015 A2998
Conditions at: OIII (TEHRAN/MEHRABAD , IR) observed 1630 UTC 19 March 2019
Temperature: 12.0°C (54°F)
Dewpoint: -5.0°C (23°F) [RH = 30%]
Pressure (altimeter): 29.97 inches Hg (1015.0 mb)
Winds: from the NW (310 degrees) at 5 MPH (4 knots; 2.1 m/s)
Visibility: 6 or more miles (10+ km)
Ceiling: 10000 feet AGL
Clouds: few clouds at 3500 feet AGL
broken clouds at 10000 feet AGL
Weather: no significant weather observed at this time

METAR text: OIII 191600Z 26008KT 9999 FEW035 SCT100 12/M04 Q1014 A2997 NOSIG
Conditions at: OIII (TEHRAN/MEHRABAD , IR) observed 1600 UTC 19 March 2019
Temperature: 12.0°C (54°F)
Dewpoint: -4.0°C (25°F) [RH = 32%]
Pressure (altimeter): 29.94 inches Hg (1014.0 mb)
Winds: from the W (260 degrees) at 9 MPH (8 knots; 4.1 m/s)
Visibility: 6 or more miles (10+ km)
Ceiling: at least 12,000 feet AGL
Clouds: few clouds at 3500 feet AGL
scattered clouds at 10000 feet AGL
Weather: no significant weather observed at this time

METAR text: OIII 191530Z 27006KT 9999 FEW035 SCT100 12/M04 Q1014 A2996
Conditions at: OIII (TEHRAN/MEHRABAD , IR) observed 1530 UTC 19 March 2019
Temperature: 12.0°C (54°F)
Dewpoint: -4.0°C (25°F) [RH = 32%]
Pressure (altimeter): 29.94 inches Hg (1014.0 mb)
Winds: from the W (270 degrees) at 7 MPH (6 knots; 3.1 m/s)
Visibility: 6 or more miles (10+ km)
Ceiling: at least 12,000 feet AGL
Clouds: few clouds at 3500 feet AGL
scattered clouds at 10000 feet AGL
Weather: no significant weather observed at this time

METAR text: OIII 191500Z 26008KT 9999 FEW035 SCT100 13/M05 Q1014 A2996
Conditions at: OIII (TEHRAN/MEHRABAD , IR) observed 1500 UTC 19 March 2019
Temperature: 13.0°C (55°F)
Dewpoint: -5.0°C (23°F) [RH = 28%]
Pressure (altimeter): 29.94 inches Hg (1014.0 mb)
Winds: from the W (260 degrees) at 9 MPH (8 knots; 4.1 m/s)
Visibility: 6 or more miles (10+ km)
Ceiling: at least 12,000 feet AGL
Clouds: few clouds at 3500 feet AGL
scattered clouds at 10000 feet AGL
Weather: no significant weather observed at this time

METAR text: OIII 191430Z 26010KT 9999 FEW035 13/M07 Q1014 A2995
Conditions at: OIII (TEHRAN/MEHRABAD , IR) observed 1430 UTC 19 March 2019
Temperature: 13.0°C (55°F)
Dewpoint: -7.0°C (19°F) [RH = 24%]
Pressure (altimeter): 29.94 inches Hg (1014.0 mb)
Winds: from the W (260 degrees) at 12 MPH (10 knots; 5.1 m/s)
Visibility: 6 or more miles (10+ km)
Ceiling: at least 12,000 feet AGL
Clouds: few clouds at 3500 feet AGL
Weather: no significant weather observed at this time

METAR text: OIII 191400Z 24012KT 9999 FEW035 13/M05 Q1014 A2994 NOSIG
Conditions at: OIII (TEHRAN/MEHRABAD , IR) observed 1400 UTC 19 March 2019
Temperature: 13.0°C (55°F)
Dewpoint: -5.0°C (23°F) [RH = 28%]
Pressure (altimeter): 29.94 inches Hg (1014.0 mb)
Winds: from the WSW (240 degrees) at 14 MPH (12 knots; 6.2 m/s)
Visibility: 6 or more miles (10+ km)
Ceiling: at least 12,000 feet AGL
Clouds: few clouds at 3500 feet AGL
Weather: no significant weather observed at this time

METAR text: OIII 191330Z 24010KT 9999 FEW035 14/M05 Q1014 A2995
Conditions at: OIII (TEHRAN/MEHRABAD , IR) observed 1330 UTC 19 March 2019
Temperature: 14.0°C (57°F)
Dewpoint: -5.0°C (23°F) [RH = 26%]
Pressure (altimeter): 29.94 inches Hg (1014.0 mb)
Winds: from the WSW (240 degrees) at 12 MPH (10 knots; 5.1 m/s)
Visibility: 6 or more miles (10+ km)
Ceiling: at least 12,000 feet AGL
Clouds: few clouds at 3500 feet AGL
Weather: no significant weather observed at this time

METAR text: OIII 191300Z 26012KT 9999 FEW035 14/M05 Q1014 A2995
Conditions at: OIII (TEHRAN/MEHRABAD , IR) observed 1300 UTC 19 March 2019
Temperature: 14.0°C (57°F)
Dewpoint: -5.0°C (23°F) [RH = 26%]
Pressure (altimeter): 29.94 inches Hg (1014.0 mb)
Winds: from the W (260 degrees) at 14 MPH (12 knots; 6.2 m/s)
Visibility: 6 or more miles (10+ km)
Ceiling: at least 12,000 feet AGL
Clouds: few clouds at 3500 feet AGL
Weather: no significant weather observed at this time

METAR text: OIII 191230Z 26008KT 9999 FEW035 14/M06 Q1014 A2994
Conditions at: OIII (TEHRAN/MEHRABAD , IR) observed 1230 UTC 19 March 2019
Temperature: 14.0°C (57°F)
Dewpoint: -6.0°C (21°F) [RH = 24%]
Pressure (altimeter): 29.94 inches Hg (1014.0 mb)
Winds: from the W (260 degrees) at 9 MPH (8 knots; 4.1 m/s)
Visibility: 6 or more miles (10+ km)
Ceiling: at least 12,000 feet AGL
Clouds: few clouds at 3500 feet AGL
Weather: no significant weather observed at this time

METAR text: OIII 191200Z 26008KT 9999 FEW035 15/M06 Q1014 A2994
Conditions at: OIII (TEHRAN/MEHRABAD , IR) observed 1200 UTC 19 March 2019
Temperature: 15.0°C (59°F)
Dewpoint: -6.0°C (21°F) [RH = 23%]
Pressure (altimeter): 29.94 inches Hg (1014.0 mb)
Winds: from the W (260 degrees) at 9 MPH (8 knots; 4.1 m/s)
Visibility: 6 or more miles (10+ km)
Ceiling: at least 12,000 feet AGL
Clouds: few clouds at 3500 feet AGL
Weather: no significant weather observed at this time

METAR text: OIII 191130Z 26006KT 9999 FEW035 14/M07 Q1014 A2995
Conditions at: OIII (TEHRAN/MEHRABAD , IR) observed 1130 UTC 19 March 2019
Temperature: 14.0°C (57°F)
Dewpoint: -7.0°C (19°F) [RH = 23%]
Pressure (altimeter): 29.94 inches Hg (1014.0 mb)
Winds: from the W (260 degrees) at 7 MPH (6 knots; 3.1 m/s)
Visibility: 6 or more miles (10+ km)
Ceiling: at least 12,000 feet AGL
Clouds: few clouds at 3500 feet AGL
Weather: no significant weather observed at this time

METAR text: OIII 191100Z 20008KT 9999 FEW035 SCT200 14/M05 Q1014 A2996 NOSIG
Conditions at: OIII (TEHRAN/MEHRABAD , IR) observed 1100 UTC 19 March 2019
Temperature: 14.0°C (57°F)
Dewpoint: -5.0°C (23°F) [RH = 26%]
Pressure (altimeter): 29.94 inches Hg (1014.0 mb)
Winds: from the SSW (200 degrees) at 9 MPH (8 knots; 4.1 m/s)
Visibility: 6 or more miles (10+ km)
Ceiling: at least 12,000 feet AGL
Clouds: few clouds at 3500 feet AGL
scattered clouds at 20000 feet AGL
Weather: no significant weather observed at this time

METAR text: OIII 191030Z 21004KT 9999 FEW035 SCT200 13/M05 Q1015 A2997
Conditions at: OIII (TEHRAN/MEHRABAD , IR) observed 1030 UTC 19 March 2019
Temperature: 13.0°C (55°F)
Dewpoint: -5.0°C (23°F) [RH = 28%]
Pressure (altimeter): 29.97 inches Hg (1015.0 mb)
Winds: from the SSW (210 degrees) at 5 MPH (4 knots; 2.1 m/s)
Visibility: 6 or more miles (10+ km)
Ceiling: at least 12,000 feet AGL
Clouds: few clouds at 3500 feet AGL
scattered clouds at 20000 feet AGL
Weather: no significant weather observed at this time

METAR text: OIII 191000Z 25006KT 9999 FEW035 SCT200 13/M06 Q1015 A2998
Conditions at: OIII (TEHRAN/MEHRABAD , IR) observed 1000 UTC 19 March 2019
Temperature: 13.0°C (55°F)
Dewpoint: -6.0°C (21°F) [RH = 26%]
Pressure (altimeter): 29.97 inches Hg (1015.0 mb)
Winds: from the WSW (250 degrees) at 7 MPH (6 knots; 3.1 m/s)
Visibility: 6 or more miles (10+ km)
Ceiling: at least 12,000 feet AGL
Clouds: few clouds at 3500 feet AGL
scattered clouds at 20000 feet AGL
Weather: no significant weather observed at this time

METAR text: OIII 190930Z 21010KT 9999 FEW035 SCT200 13/M05 Q1015 A2999
Conditions at: OIII (TEHRAN/MEHRABAD , IR) observed 0930 UTC 19 March 2019
Temperature: 13.0°C (55°F)
Dewpoint: -5.0°C (23°F) [RH = 28%]
Pressure (altimeter): 29.97 inches Hg (1015.0 mb)
Winds: from the SSW (210 degrees) at 12 MPH (10 knots; 5.1 m/s)
Visibility: 6 or more miles (10+ km)
Ceiling: at least 12,000 feet AGL
Clouds: few clouds at 3500 feet AGL
scattered clouds at 20000 feet AGL
Weather: no significant weather observed at this time

METAR text: OIII 190900Z 21008KT 9999 FEW035 SCT200 12/M05 Q1016 A3000 NOSIG
Conditions at: OIII (TEHRAN/MEHRABAD , IR) observed 0900 UTC 19 March 2019
Temperature: 12.0°C (54°F)
Dewpoint: -5.0°C (23°F) [RH = 30%]
Pressure (altimeter): 30.00 inches Hg (1016.0 mb)
Winds: from the SSW (210 degrees) at 9 MPH (8 knots; 4.1 m/s)
Visibility: 6 or more miles (10+ km)
Ceiling: at least 12,000 feet AGL
Clouds: few clouds at 3500 feet AGL
scattered clouds at 20000 feet AGL
Weather: no significant weather observed at this time

METAR text: OIII 190830Z 27006KT 9999 FEW035 12/M05 Q1016 A3000
Conditions at: OIII (TEHRAN/MEHRABAD , IR) observed 0830 UTC 19 March 2019
Temperature: 12.0°C (54°F)
Dewpoint: -5.0°C (23°F) [RH = 30%]
Pressure (altimeter): 30.00 inches Hg (1016.0 mb)
Winds: from the W (270 degrees) at 7 MPH (6 knots; 3.1 m/s)
Visibility: 6 or more miles (10+ km)
Ceiling: at least 12,000 feet AGL
Clouds: few clouds at 3500 feet AGL
Weather: no significant weather observed at this time

METAR text: OIII 190800Z 24008KT 9999 FEW035 11/M06 Q1016 A3001
Conditions at: OIII (TEHRAN/MEHRABAD , IR) observed 0800 UTC 19 March 2019
Temperature: 11.0°C (52°F)
Dewpoint: -6.0°C (21°F) [RH = 30%]
Pressure (altimeter): 30.00 inches Hg (1016.0 mb)
Winds: from the WSW (240 degrees) at 9 MPH (8 knots; 4.1 m/s)
Visibility: 6 or more miles (10+ km)
Ceiling: at least 12,000 feet AGL
Clouds: few clouds at 3500 feet AGL
Weather: no significant weather observed at this time

METAR text: OIII 190730Z 21004KT 9999 FEW035 11/M06 Q1016 A3001
Conditions at: OIII (TEHRAN/MEHRABAD , IR) observed 0730 UTC 19 March 2019
Temperature: 11.0°C (52°F)
Dewpoint: -6.0°C (21°F) [RH = 30%]
Pressure (altimeter): 30.00 inches Hg (1016.0 mb)
Winds: from the SSW (210 degrees) at 5 MPH (4 knots; 2.1 m/s)
Visibility: 6 or more miles (10+ km)
Ceiling: at least 12,000 feet AGL
Clouds: few clouds at 3500 feet AGL
Weather: no significant weather observed at this time

METAR text: OIII 190700Z 24006KT 9999 FEW035 10/M06 Q1016 A3001 NOSIG
Conditions at: OIII (TEHRAN/MEHRABAD , IR) observed 0700 UTC 19 March 2019
Temperature: 10.0°C (50°F)
Dewpoint: -6.0°C (21°F) [RH = 32%]
Pressure (altimeter): 30.00 inches Hg (1016.0 mb)
Winds: from the WSW (240 degrees) at 7 MPH (6 knots; 3.1 m/s)
Visibility: 6 or more miles (10+ km)
Ceiling: at least 12,000 feet AGL
Clouds: few clouds at 3500 feet AGL
Weather: no significant weather observed at this time

METAR text: OIII 190630Z 26006KT 9999 FEW035 10/M05 Q1016 A3001
Conditions at: OIII (TEHRAN/MEHRABAD , IR) observed 0630 UTC 19 March 2019
Temperature: 10.0°C (50°F)
Dewpoint: -5.0°C (23°F) [RH = 34%]
Pressure (altimeter): 30.00 inches Hg (1016.0 mb)
Winds: from the W (260 degrees) at 7 MPH (6 knots; 3.1 m/s)
Visibility: 6 or more miles (10+ km)
Ceiling: at least 12,000 feet AGL
Clouds: few clouds at 3500 feet AGL
Weather: no significant weather observed at this time

METAR text: OIII 190600Z 23010KT 9999 FEW035 09/M03 Q1016 A3001
Conditions at: OIII (TEHRAN/MEHRABAD , IR) observed 0600 UTC 19 March 2019
Temperature: 9.0°C (48°F)
Dewpoint: -3.0°C (27°F) [RH = 43%]
Pressure (altimeter): 30.00 inches Hg (1016.0 mb)
Winds: from the SW (230 degrees) at 12 MPH (10 knots; 5.1 m/s)
Visibility: 6 or more miles (10+ km)
Ceiling: at least 12,000 feet AGL
Clouds: few clouds at 3500 feet AGL
Weather: no significant weather observed at this time

METAR text: OIII 190530Z 22008KT CAVOK 08/M00 Q1016 A3000
Conditions at: OIII (TEHRAN/MEHRABAD , IR) observed 0530 UTC 19 March 2019
Temperature: 8.0°C (46°F)
Dewpoint: 0.0°C (32°F) [RH = 57%]
Pressure (altimeter): 30.00 inches Hg (1016.0 mb)
Winds: from the SW (220 degrees) at 9 MPH (8 knots; 4.1 m/s)
Visibility: 6 or more miles (10+ km)
Ceiling: ceiling and visibility are OK
Clouds: unknown
Weather: no significant weather observed at this time

METAR text: OIII 190500Z 25004KT CAVOK 07/M00 Q1015 A3000 NOSIG
Conditions at: OIII (TEHRAN/MEHRABAD , IR) observed 0500 UTC 19 March 2019
Temperature: 7.0°C (45°F)
Dewpoint: 0.0°C (32°F) [RH = 61%]
Pressure (altimeter): 29.97 inches Hg (1015.0 mb)
Winds: from the WSW (250 degrees) at 5 MPH (4 knots; 2.1 m/s)
Visibility: 6 or more miles (10+ km)
Ceiling: ceiling and visibility are OK
Clouds: unknown
Weather: no significant weather observed at this time

METAR text: OIII 190430Z 25004KT CAVOK 06/M00 Q1015 A3000
Conditions at: OIII (TEHRAN/MEHRABAD , IR) observed 0430 UTC 19 March 2019
Temperature: 6.0°C (43°F)
Dewpoint: 0.0°C (32°F) [RH = 65%]
Pressure (altimeter): 29.97 inches Hg (1015.0 mb)
Winds: from the WSW (250 degrees) at 5 MPH (4 knots; 2.1 m/s)
Visibility: 6 or more miles (10+ km)
Ceiling: ceiling and visibility are OK
Clouds: unknown
Weather: no significant weather observed at this time

METAR text: OIII 190400Z 31006KT CAVOK 04/M00 Q1015 A2999 NOSIG
Conditions at: OIII (TEHRAN/MEHRABAD , IR) observed 0400 UTC 19 March 2019
Temperature: 4.0°C (39°F)
Dewpoint: 0.0°C (32°F) [RH = 75%]
Pressure (altimeter): 29.97 inches Hg (1015.0 mb)
Winds: from the NW (310 degrees) at 7 MPH (6 knots; 3.1 m/s)
Visibility: 6 or more miles (10+ km)
Ceiling: ceiling and visibility are OK
Clouds: unknown
Weather: no significant weather observed at this time

METAR text: OIII 190330Z 27006KT CAVOK 02/M01 Q1015 A2998
Conditions at: OIII (TEHRAN/MEHRABAD , IR) observed 0330 UTC 19 March 2019
Temperature: 2.0°C (36°F)
Dewpoint: -1.0°C (30°F) [RH = 80%]
Pressure (altimeter): 29.97 inches Hg (1015.0 mb)
Winds: from the W (270 degrees) at 7 MPH (6 knots; 3.1 m/s)
Visibility: 6 or more miles (10+ km)
Ceiling: ceiling and visibility are OK
Clouds: unknown
Weather: no significant weather observed at this time

Forecast for: OIII (TEHRAN/MEHRABAD , IR)
Text: TAF OIII 201110Z 2012/2118 27008KT 9999 FEW030TCU SCT035 SCT100
Forecast period: 1200 to 1700 UTC 20 March 2019
Forecast type: FROM: standard forecast or significant change
Winds: from the W (270 degrees) at 9 MPH (8 knots; 4.1 m/s)
Visibility: 6 or more miles 10+ km)
Ceiling: at least 12,000 feet AGL
Clouds: few clouds at 3000 feet AGL
scattered clouds at 3500 feet AGL
scattered clouds at 10000 feet AGL
Weather: no significant weather forecast for this period
Text: TEMPO 2012/2016 27018KT 6000 SHRA FEW030CB SCT035 BKN090
Forecast period: 1200 to 1600 UTC 20 March 2019
Forecast type: TEMPORARY: The following changes expected for less than half the time period
Winds: from the W (270 degrees) at 21 MPH (18 knots; 9.3 m/s)
Visibility: 4 miles (6 km)
Ceiling: 9000 feet AGL
Clouds: few clouds at 3000 feet AGL
scattered clouds at 3500 feet AGL
broken clouds at 9000 feet AGL
Weather: SHRA  (rain showers)
Text: BECMG 2017/2018 FEW035 SCT100
Forecast period: 1700 UTC 20 March 2019 to 1800 UTC 21 March 2019
Forecast type: BECOMING: Conditions expected to become as follows by 1800 UTC 20 March 2019
Winds: from the W (270 degrees) at 9 MPH (8 knots; 4.1 m/s)
Visibility: 6 or more miles 10+ km)
Ceiling: at least 12,000 feet AGL
Clouds: few clouds at 3500 feet AGL
scattered clouds at 10000 feet AGL
Weather: no significant weather forecast for this period
Text: TEMPO 2109/2115 27018KT -SHRA FEW035CB SCT040 BKN100
Forecast period: 0900 to 1500 UTC 21 March 2019
Forecast type: TEMPORARY: The following changes expected for less than half the time period
Winds: from the W (270 degrees) at 21 MPH (18 knots; 9.3 m/s)
Visibility: missing
Ceiling: 10000 feet AGL
Clouds: few clouds at 3500 feet AGL
scattered clouds at 4000 feet AGL
broken clouds at 10000 feet AGL
Weather: -SHRA  (light rain showers)